Time;durP1;ratioP1;P1;durP2;ratioP2;P2;SDS_P1;SDS_P2;PMS_P1;PMS_P2;Temp;Humidity;BMP_temperature;BMP_pressure;BME280_temperature;BME280_humidity;BME280_pressure;Samples;Min_cycle;Max_cycle;Signal;HPM_P1;HPM_P2
2023/01/17 00:02:06;;;;;;;2.10;1.23;;;2.80;99.90;;;;;;6238434;23;20172;-80
2023/01/17 00:10:07;;;;;;;1.20;1.05;;;2.70;99.90;;;;;;6239440;23;20534;-82
2023/01/17 00:12:33;;;;;;;2.55;1.63;;;2.60;99.90;;;;;;6237908;22;20184;-80
2023/01/17 00:14:59;;;;;;;6.63;1.55;;;2.50;99.90;;;;;;6238185;23;20156;-81
2023/01/17 00:17:27;;;;;;;0.95;0.95;;;2.50;99.90;;;;;;6238983;23;20161;-80
2023/01/17 01:35:26;;;;;;;3.72;2.72;;;1.90;99.90;;;;;;6238294;23;20664;-82
2023/01/17 01:37:51;;;;;;;3.27;1.90;;;1.90;99.90;;;;;;6255915;22;20175;-82
2023/01/17 01:40:18;;;;;;;3.40;2.33;;;2.00;99.90;;;;;;6238995;23;20391;-84
2023/01/17 01:42:56;;;;;;;2.97;1.92;;;2.00;99.90;;;;;;6236611;23;20176;-79
2023/01/17 01:45:24;;;;;;;7.00;1.40;;;2.00;99.90;;;;;;6237317;23;20167;-81
2023/01/17 01:47:55;;;;;;;2.88;1.77;;;2.00;99.90;;;;;;6237351;23;20160;-83
2023/01/17 01:50:21;;;;;;;2.70;1.92;;;2.00;99.90;;;;;;6237597;22;20510;-82
2023/01/17 01:52:52;;;;;;;4.33;2.03;;;2.00;99.90;;;;;;6240151;23;20180;-84
2023/01/17 01:55:24;;;;;;;2.50;1.42;;;2.00;99.90;;;;;;6231236;22;20137;-85
2023/01/17 01:57:53;;;;;;;4.57;1.70;;;2.10;99.90;;;;;;6232586;23;20168;-83
2023/01/17 02:00:23;;;;;;;2.33;1.40;;;2.10;99.90;;;;;;6235474;23;20159;-85
2023/01/17 02:02:51;;;;;;;4.43;1.67;;;2.10;99.90;;;;;;6237913;23;20263;-84
2023/01/17 02:05:19;;;;;;;5.85;2.50;;;2.10;99.90;;;;;;6239587;22;20634;-82
2023/01/17 02:08:00;;;;;;;3.67;2.22;;;2.10;99.90;;;;;;6246276;22;20214;-85
2023/01/17 02:10:25;;;;;;;6.75;2.53;;;2.20;99.90;;;;;;6239347;23;20147;-83
2023/01/17 02:12:53;;;;;;;2.67;1.80;;;2.20;99.90;;;;;;6237243;23;20649;-83
2023/01/17 02:15:23;;;;;;;2.45;1.50;;;2.20;99.90;;;;;;6239489;22;20187;-79
2023/01/17 02:18:28;;;;;;;2.88;1.80;;;2.30;99.90;;;;;;6239050;23;20141;-80
2023/01/17 02:21:06;;;;;;;12.88;2.17;;;2.30;99.90;;;;;;6235692;23;20140;-80
2023/01/17 02:24:07;;;;;;;3.05;1.70;;;2.30;99.90;;;;;;6238260;22;20171;-79
2023/01/17 02:26:46;;;;;;;2.47;1.50;;;2.30;99.90;;;;;;6238425;22;20160;-84
2023/01/17 02:29:31;;;;;;;3.38;1.48;;;2.30;99.90;;;;;;6240342;22;20176;-82
2023/01/17 02:32:13;;;;;;;3.47;1.60;;;2.40;99.90;;;;;;6243416;23;20306;-84
2023/01/17 02:35:00;;;;;;;5.00;2.25;;;2.40;99.90;;;;;;6241454;23;20141;-80
2023/01/17 02:37:43;;;;;;;3.33;2.03;;;2.40;99.90;;;;;;6235846;23;20145;-83
2023/01/17 02:40:33;;;;;;;2.42;1.90;;;2.30;99.90;;;;;;6238133;22;20172;-81
2023/01/17 02:43:07;;;;;;;2.22;1.67;;;2.30;99.90;;;;;;6237296;23;20181;-83
2023/01/17 02:45:32;;;;;;;2.85;1.73;;;2.30;99.90;;;;;;6237509;22;20141;-80
2023/01/17 02:47:58;;;;;;;2.33;1.73;;;2.30;99.90;;;;;;6236774;23;20156;-80
2023/01/17 02:50:42;;;;;;;4.53;1.60;;;2.30;99.90;;;;;;6238674;23;20160;-81
2023/01/17 02:53:10;;;;;;;2.97;1.40;;;2.30;99.90;;;;;;6248126;23;20519;-83
2023/01/17 02:55:52;;;;;;;1.80;1.70;;;2.20;99.90;;;;;;6235692;23;20156;-82
2023/01/17 02:58:23;;;;;;;3.47;1.40;;;2.20;99.90;;;;;;6232271;23;20137;-83
2023/01/17 03:01:28;;;;;;;2.33;1.38;;;2.20;99.90;;;;;;6233226;23;20198;-80
2023/01/17 03:04:03;;;;;;;3.25;1.95;;;2.20;99.90;;;;;;6236717;22;20243;-80
2023/01/17 03:06:38;;;;;;;3.75;1.70;;;2.20;99.90;;;;;;6236897;22;20133;-85
2023/01/17 03:09:04;;;;;;;4.40;1.95;;;2.10;99.90;;;;;;6237047;22;20247;-82
2023/01/17 03:11:30;;;;;;;1.63;1.00;;;2.10;99.90;;;;;;6237390;22;20202;-79
2023/01/17 03:13:56;;;;;;;2.17;1.60;;;2.00;99.90;;;;;;6232432;23;20168;-81
2023/01/17 03:16:24;;;;;;;2.67;1.50;;;1.90;99.90;;;;;;6235155;23;20235;-83
2023/01/17 03:18:49;;;;;;;8.48;1.63;;;1.80;99.90;;;;;;6238756;22;20235;-82
2023/01/17 03:21:15;;;;;;;4.20;1.70;;;1.80;99.90;;;;;;6236519;23;20198;-82
2023/01/17 03:23:41;;;;;;;3.97;2.17;;;1.80;99.90;;;;;;6235859;23;20188;-83
2023/01/17 03:26:07;;;;;;;12.47;3.77;;;1.70;99.90;;;;;;6235235;23;20383;-82
2023/01/17 03:28:32;;;;;;;9.17;2.70;;;1.60;99.90;;;;;;6237122;23;20263;-81
2023/01/17 03:30:58;;;;;;;7.03;2.23;;;1.60;99.90;;;;;;6234135;23;20152;-81
2023/01/17 03:33:25;;;;;;;2.47;1.73;;;1.60;99.90;;;;;;6234530;23;20168;-80
2023/01/17 03:35:51;;;;;;;3.95;2.60;;;1.60;99.90;;;;;;6238912;23;20159;-82
2023/01/17 03:38:17;;;;;;;3.22;1.98;;;1.60;99.90;;;;;;6235574;22;20153;-80
2023/01/17 03:40:42;;;;;;;2.87;2.20;;;1.70;99.90;;;;;;6234820;23;20236;-82
2023/01/17 03:43:08;;;;;;;3.87;2.60;;;1.80;99.90;;;;;;6237219;23;20164;-81
2023/01/17 03:45:33;;;;;;;3.67;2.10;;;1.80;99.90;;;;;;6233730;23;20157;-78
2023/01/17 03:47:59;;;;;;;3.03;1.43;;;1.90;99.90;;;;;;6232481;23;20167;-79
2023/01/17 03:50:25;;;;;;;2.33;1.70;;;2.00;99.90;;;;;;6237018;23;20224;-80
2023/01/17 03:52:51;;;;;;;5.50;1.83;;;2.10;99.90;;;;;;6237092;23;20680;-79
2023/01/17 03:55:17;;;;;;;1.57;1.47;;;2.10;99.90;;;;;;6235849;23;20376;-80
2023/01/17 03:57:42;;;;;;;2.72;1.15;;;2.10;99.90;;;;;;6234193;23;20175;-80
2023/01/17 04:00:09;;;;;;;1.97;1.60;;;2.20;99.90;;;;;;6234015;23;20214;-82
2023/01/17 04:02:34;;;;;;;3.00;1.30;;;2.30;99.90;;;;;;6236760;22;20180;-81
2023/01/17 04:05:00;;;;;;;6.20;2.03;;;2.30;99.90;;;;;;6236057;23;20172;-79
2023/01/17 04:07:26;;;;;;;2.77;2.00;;;2.30;99.90;;;;;;6246492;22;20153;-80
2023/01/17 04:09:51;;;;;;;3.17;1.57;;;2.30;99.90;;;;;;6233792;23;20188;-82
2023/01/17 04:12:17;;;;;;;1.50;1.40;;;2.20;99.90;;;;;;6236081;23;20169;-82
2023/01/17 04:14:42;;;;;;;2.47;1.00;;;2.10;99.90;;;;;;6233774;23;20483;-80
2023/01/17 04:17:11;;;;;;;5.53;2.37;;;2.10;99.90;;;;;;6231626;23;20168;-79
2023/01/17 04:19:37;;;;;;;2.17;2.03;;;2.10;99.90;;;;;;6233756;23;20176;-81
2023/01/17 04:22:02;;;;;;;5.53;2.87;;;2.20;99.90;;;;;;6233644;23;20176;-80
2023/01/17 04:24:28;;;;;;;5.20;1.93;;;2.20;99.90;;;;;;6236444;23;20398;-80
2023/01/17 04:26:53;;;;;;;3.23;1.27;;;2.20;99.90;;;;;;6236169;23;20148;-83
2023/01/17 04:29:19;;;;;;;1.73;1.60;;;2.30;99.90;;;;;;6230047;23;20227;-81
2023/01/17 04:31:46;;;;;;;5.93;2.03;;;2.30;99.90;;;;;;6235170;23;20227;-79
2023/01/17 04:34:12;;;;;;;4.43;1.73;;;2.30;99.90;;;;;;6250827;23;20202;-80
2023/01/17 04:36:37;;;;;;;1.83;1.73;;;2.40;99.90;;;;;;6239350;23;20235;-80
2023/01/17 04:39:03;;;;;;;2.17;1.77;;;2.40;99.90;;;;;;6236648;23;20239;-84
2023/01/17 04:41:28;;;;;;;1.90;1.40;;;2.40;99.90;;;;;;6240726;23;20178;-82
2023/01/17 04:43:54;;;;;;;1.73;0.97;;;2.50;99.90;;;;;;6253675;23;20191;-82
2023/01/17 04:46:20;;;;;;;7.63;2.30;;;2.50;99.90;;;;;;6245261;23;20503;-81
2023/01/17 04:48:45;;;;;;;1.73;1.50;;;2.40;99.90;;;;;;6237305;23;20171;-81
2023/01/17 04:51:11;;;;;;;0.97;0.97;;;2.20;99.90;;;;;;6234308;23;20888;-81
2023/01/17 04:53:36;;;;;;;2.10;1.20;;;2.10;99.90;;;;;;6233108;23;20184;-82
2023/01/17 04:56:02;;;;;;;1.27;1.00;;;2.00;99.90;;;;;;6233061;23;20216;-81
2023/01/17 04:58:29;;;;;;;1.50;0.90;;;1.90;99.90;;;;;;6232847;23;20195;-83
2023/01/17 05:00:54;;;;;;;0.90;0.80;;;1.90;99.90;;;;;;6230355;22;20552;-81
2023/01/17 05:03:21;;;;;;;1.83;0.83;;;1.80;99.90;;;;;;6240636;23;20173;-80
2023/01/17 05:05:47;;;;;;;1.38;1.00;;;1.70;99.90;;;;;;6234300;23;20160;-80
2023/01/17 05:08:14;;;;;;;1.02;0.65;;;1.60;99.90;;;;;;6235977;23;20227;-85
2023/01/17 05:10:39;;;;;;;1.15;1.05;;;1.40;99.90;;;;;;6233181;23;20172;-80
2023/01/17 05:13:05;;;;;;;1.33;1.13;;;1.30;99.90;;;;;;6236686;23;20164;-81
2023/01/17 05:15:30;;;;;;;1.47;1.30;;;1.20;99.90;;;;;;6235949;22;20206;-85
2023/01/17 05:17:56;;;;;;;4.70;1.40;;;1.10;99.90;;;;;;6244127;23;20192;-85
2023/01/17 05:20:23;;;;;;;4.97;1.40;;;0.90;99.90;;;;;;6242045;23;20152;-85
2023/01/17 05:22:54;;;;;;;3.85;1.63;;;0.80;99.90;;;;;;6238772;23;20140;-84
2023/01/17 05:25:24;;;;;;;2.00;0.77;;;0.60;99.90;;;;;;6241634;22;20153;-82
2023/01/17 05:27:50;;;;;;;2.40;1.70;;;0.40;99.90;;;;;;6244766;22;20218;-81
2023/01/17 05:30:16;;;;;;;3.58;1.50;;;0.20;99.90;;;;;;6244666;23;20188;-82
2023/01/17 05:32:53;;;;;;;1.08;0.95;;;0.10;99.90;;;;;;6240897;23;20149;-81
2023/01/17 05:35:28;;;;;;;1.90;1.30;;;0.00;99.90;;;;;;6245511;23;20140;-82
2023/01/17 05:37:53;;;;;;;1.92;1.15;;;-0.10;99.90;;;;;;6244955;23;20175;-79
2023/01/17 05:40:25;;;;;;;1.90;1.27;;;-0.10;99.90;;;;;;6244834;22;20404;-82
2023/01/17 05:42:54;;;;;;;1.58;0.95;;;-0.20;99.90;;;;;;6243362;23;20375;-79
2023/01/17 05:45:21;;;;;;;1.25;1.05;;;-0.20;99.90;;;;;;6244693;22;20137;-79
2023/01/17 05:47:49;;;;;;;1.63;1.30;;;-0.20;99.90;;;;;;6246276;22;20169;-84
2023/01/17 05:50:17;;;;;;;1.25;1.15;;;-0.40;99.90;;;;;;6244531;22;20192;-81
2023/01/17 05:52:52;;;;;;;1.02;0.95;;;-0.50;99.90;;;;;;6244335;22;20221;-84
2023/01/17 05:55:19;;;;;;;0.95;0.95;;;-0.50;99.90;;;;;;6242201;23;20190;-80
2023/01/17 05:57:44;;;;;;;3.13;1.17;;;-0.50;99.90;;;;;;6241108;23;20191;-81
2023/01/17 06:00:11;;;;;;;5.77;1.73;;;-0.50;99.90;;;;;;6243691;23;20595;-84
2023/01/17 06:02:37;;;;;;;0.88;0.88;;;-0.60;99.90;;;;;;6242403;22;20149;-80
2023/01/17 06:05:03;;;;;;;1.63;1.20;;;-0.70;99.90;;;;;;6243231;23;20148;-82
2023/01/17 06:07:28;;;;;;;12.32;1.60;;;-0.70;99.90;;;;;;6245716;22;20192;-82
2023/01/17 06:09:54;;;;;;;1.50;1.40;;;-0.70;99.90;;;;;;6243618;23;20311;-82
2023/01/17 06:12:19;;;;;;;3.13;2.70;;;-0.80;99.90;;;;;;6241019;23;20156;-83
2023/01/17 06:14:45;;;;;;;2.03;1.63;;;-0.70;99.90;;;;;;6241986;23;20178;-83
2023/01/17 06:17:10;;;;;;;13.33;2.63;;;-0.70;99.90;;;;;;6245400;23;20160;-83
2023/01/17 06:19:36;;;;;;;2.33;1.33;;;-0.70;99.90;;;;;;6242109;23;20502;-81
2023/01/17 06:22:03;;;;;;;3.73;1.60;;;-0.60;99.90;;;;;;6246383;23;20153;-83
2023/01/17 06:24:29;;;;;;;1.85;1.55;;;-0.60;99.90;;;;;;6242414;23;20298;-83
2023/01/17 06:26:55;;;;;;;4.45;3.45;;;-0.60;99.90;;;;;;6241933;22;20145;-84
2023/01/17 06:29:20;;;;;;;9.93;8.77;;;-0.70;99.90;;;;;;6242269;22;20168;-82
2023/01/17 06:31:46;;;;;;;13.27;7.40;;;-0.70;99.90;;;;;;6242732;23;20144;-85
2023/01/17 06:34:11;;;;;;;6.30;5.73;;;-0.70;99.90;;;;;;6243947;23;20152;-84
2023/01/17 06:36:37;;;;;;;8.33;5.80;;;-0.80;99.90;;;;;;6244392;23;20152;-84
2023/01/17 06:39:03;;;;;;;3.53;3.20;;;-0.80;99.90;;;;;;6244637;23;20825;-82
2023/01/17 06:41:28;;;;;;;4.50;3.67;;;-0.90;99.90;;;;;;6242145;23;20618;-85
2023/01/17 06:43:54;;;;;;;4.10;3.80;;;-0.90;99.90;;;;;;6243702;23;20200;-83
2023/01/17 06:46:20;;;;;;;5.30;4.80;;;-1.00;99.90;;;;;;6241911;23;20160;-81
2023/01/17 06:48:47;;;;;;;8.70;5.60;;;-1.00;99.90;;;;;;6243596;23;20172;-83
2023/01/17 06:51:13;;;;;;;6.60;4.85;;;-0.90;99.90;;;;;;6242352;23;20379;-84
2023/01/17 06:53:39;;;;;;;8.73;5.40;;;-0.90;99.90;;;;;;6240991;23;20152;-84
2023/01/17 06:56:05;;;;;;;4.33;3.50;;;-1.00;99.90;;;;;;6242777;23;20247;-81
2023/01/17 06:58:30;;;;;;;3.25;2.95;;;-1.00;99.90;;;;;;6242728;22;20419;-82
2023/01/17 07:00:56;;;;;;;3.00;2.10;;;-1.00;99.90;;;;;;6244769;23;20145;-82
2023/01/17 07:03:24;;;;;;;4.13;2.83;;;-1.00;99.90;;;;;;6243538;23;20156;-84
2023/01/17 07:05:50;;;;;;;5.03;2.92;;;-0.90;99.90;;;;;;6241825;23;20156;-83
2023/01/17 07:08:16;;;;;;;2.90;1.67;;;-0.90;99.90;;;;;;6241961;23;20191;-84
2023/01/17 07:10:43;;;;;;;7.05;1.92;;;-0.90;99.90;;;;;;6245009;22;20374;-82
2023/01/17 07:13:10;;;;;;;2.25;1.63;;;-0.90;99.90;;;;;;6242551;23;20148;-84
2023/01/17 07:15:36;;;;;;;6.57;1.88;;;-0.90;99.90;;;;;;6241774;22;20183;-85
2023/01/17 07:18:02;;;;;;;9.47;3.10;;;-0.90;99.90;;;;;;6243103;23;20168;-83
2023/01/17 07:20:29;;;;;;;25.02;11.32;;;-0.80;99.90;;;;;;6237838;23;20379;-86
2023/01/17 07:22:55;;;;;;;34.42;12.88;;;-1.00;99.90;;;;;;6243489;22;20145;-83
2023/01/17 07:25:20;;;;;;;3.80;3.00;;;-0.80;99.90;;;;;;6243211;23;20230;-82
2023/01/17 07:27:46;;;;;;;11.50;4.23;;;-0.60;99.90;;;;;;6240314;23;20175;-81
2023/01/17 07:30:12;;;;;;;6.23;4.80;;;-0.50;99.90;;;;;;6240273;23;20176;-84
2023/01/17 07:32:38;;;;;;;3.35;1.70;;;-0.50;99.90;;;;;;6242760;23;20191;-84
2023/01/17 07:35:04;;;;;;;1.10;1.00;;;-0.50;99.90;;;;;;6242996;23;20159;-82
2023/01/17 07:37:30;;;;;;;0.95;0.90;;;-0.50;99.90;;;;;;6241396;23;20429;-84
2023/01/17 07:39:56;;;;;;;3.10;1.33;;;-0.50;99.90;;;;;;6239544;23;20153;-84
2023/01/17 07:42:22;;;;;;;1.80;1.40;;;-0.50;99.90;;;;;;6241179;23;20160;-86
2023/01/17 07:44:47;;;;;;;1.00;0.90;;;-0.40;99.90;;;;;;6241227;23;20603;-84
2023/01/17 07:47:13;;;;;;;2.43;1.83;;;-0.40;99.90;;;;;;6239868;23;20399;-83
2023/01/17 07:49:38;;;;;;;3.97;1.27;;;-0.30;99.90;;;;;;6242371;23;20230;-84
2023/01/17 07:52:08;;;;;;;5.60;2.33;;;-0.30;99.90;;;;;;6243132;23;20599;-84
2023/01/17 07:54:34;;;;;;;6.57;3.78;;;-0.20;99.90;;;;;;6242392;22;20224;-84
2023/01/17 07:57:00;;;;;;;4.10;1.53;;;0.10;99.90;;;;;;6241402;23;20588;-84
2023/01/17 07:59:25;;;;;;;3.05;1.42;;;0.20;99.90;;;;;;6241116;23;20383;-83
2023/01/17 08:01:51;;;;;;;49.67;18.63;;;0.30;99.90;;;;;;6241222;23;20155;-83
2023/01/17 08:04:16;;;;;;;9.30;2.97;;;0.60;99.90;;;;;;6240493;23;20182;-84
2023/01/17 08:06:46;;;;;;;4.90;2.63;;;0.70;99.90;;;;;;6239554;23;20194;-83
2023/01/17 08:09:12;;;;;;;5.38;2.35;;;0.70;99.90;;;;;;6237607;22;20270;-83
2023/01/17 08:11:38;;;;;;;6.35;3.05;;;0.80;99.90;;;;;;6239231;23;20168;-83
2023/01/17 08:14:03;;;;;;;4.47;3.00;;;0.70;99.90;;;;;;6238106;23;20465;-83
2023/01/17 08:16:29;;;;;;;3.60;2.50;;;0.70;99.90;;;;;;6241659;23;20152;-84
2023/01/17 08:18:55;;;;;;;4.77;2.90;;;0.50;99.90;;;;;;6239374;23;20554;-83
2023/01/17 08:21:23;;;;;;;2.42;1.73;;;0.40;99.90;;;;;;6241647;22;20152;-83
2023/01/17 08:23:50;;;;;;;3.55;2.20;;;0.30;99.90;;;;;;6238920;23;20156;-83
2023/01/17 08:26:23;;;;;;;3.58;2.60;;;0.40;99.90;;;;;;6240268;23;20157;-84
2023/01/17 08:29:01;;;;;;;7.68;2.80;;;0.40;99.90;;;;;;6240117;23;20203;-84
2023/01/17 08:31:32;;;;;;;4.13;2.38;;;0.70;99.90;;;;;;6242592;22;20129;-85
2023/01/17 08:33:58;;;;;;;6.95;4.25;;;0.80;99.90;;;;;;6238649;23;20145;-84
2023/01/17 08:36:25;;;;;;;5.25;4.65;;;0.70;99.90;;;;;;6242431;22;20137;-83
2023/01/17 08:38:51;;;;;;;9.35;4.25;;;0.70;99.90;;;;;;6241975;22;20720;-84
2023/01/17 08:41:18;;;;;;;7.53;2.92;;;0.80;99.90;;;;;;6236670;23;20255;-82
2023/01/17 08:43:46;;;;;;;7.40;4.72;;;1.10;99.90;;;;;;6237912;23;20210;-84
2023/01/17 08:46:11;;;;;;;7.22;4.40;;;1.20;99.90;;;;;;6239274;23;20163;-83
2023/01/17 08:48:37;;;;;;;4.53;3.53;;;1.10;99.90;;;;;;6242012;23;20207;-83
2023/01/17 08:51:03;;;;;;;8.20;6.10;;;1.20;99.90;;;;;;6240652;23;20149;-84
2023/01/17 08:53:28;;;;;;;6.40;5.03;;;1.20;99.90;;;;;;6241259;23;20488;-84
2023/01/17 08:56:01;;;;;;;5.70;3.57;;;1.20;99.90;;;;;;6242078;23;20653;-83
2023/01/17 08:58:29;;;;;;;7.82;3.75;;;1.30;99.90;;;;;;6240564;23;20231;-83
2023/01/17 09:01:01;;;;;;;5.68;3.20;;;1.50;99.90;;;;;;6240817;23;20160;-84
2023/01/17 09:03:27;;;;;;;4.78;3.40;;;1.50;99.90;;;;;;6243243;22;20137;-83
2023/01/17 09:06:11;;;;;;;3.40;2.20;;;1.60;99.90;;;;;;6242687;23;20275;-84
2023/01/17 09:08:37;;;;;;;4.63;2.25;;;1.50;99.90;;;;;;6242098;23;20658;-83
2023/01/17 09:11:07;;;;;;;4.68;2.60;;;1.60;99.90;;;;;;6244315;23;20163;-84
2023/01/17 09:13:33;;;;;;;3.95;2.40;;;1.80;99.90;;;;;;6243523;22;20140;-83
2023/01/17 09:16:00;;;;;;;4.97;2.03;;;2.10;99.90;;;;;;6238456;22;20615;-84
2023/01/17 09:18:26;;;;;;;2.90;1.55;;;2.50;99.90;;;;;;6242004;23;20434;-83
2023/01/17 09:20:57;;;;;;;2.90;1.33;;;2.90;99.90;;;;;;6241026;23;20157;-83
2023/01/17 09:23:25;;;;;;;2.30;1.20;;;3.40;99.90;;;;;;6244973;22;20129;-84
2023/01/17 09:26:00;;;;;;;2.45;1.38;;;3.70;99.90;;;;;;6244101;23;20156;-85
2023/01/17 09:28:27;;;;;;;3.00;2.38;;;3.80;99.90;;;;;;6244564;22;20716;-82
2023/01/17 09:30:53;;;;;;;5.28;1.48;;;3.90;99.90;;;;;;6243504;23;20216;-82
2023/01/17 09:33:19;;;;;;;3.95;2.22;;;4.00;99.90;;;;;;6244670;23;20172;-84
2023/01/17 09:35:45;;;;;;;3.85;2.35;;;4.40;99.90;;;;;;6243225;23;20191;-81
2023/01/17 09:38:11;;;;;;;3.97;2.60;;;4.90;99.90;;;;;;6245773;22;20173;-82
2023/01/17 09:40:43;;;;;;;3.10;2.10;;;5.10;99.90;;;;;;6242908;23;20866;-84
2023/01/17 09:43:46;;;;;;;4.40;2.25;;;5.10;99.90;;;;;;6243387;23;20278;-83
2023/01/17 09:46:42;;;;;;;4.15;2.60;;;5.10;99.90;;;;;;6244597;23;20140;-83
2023/01/17 09:49:22;;;;;;;10.70;3.65;;;5.20;99.90;;;;;;6233276;23;20530;-83
2023/01/17 09:51:48;;;;;;;7.70;4.20;;;5.30;99.90;;;;;;6244024;23;20148;-83
2023/01/17 09:54:22;;;;;;;3.83;1.93;;;5.50;99.90;;;;;;6245418;23;20157;-83
2023/01/17 09:56:59;;;;;;;8.85;2.15;;;5.60;99.90;;;;;;6243072;22;20488;-82
2023/01/17 09:59:44;;;;;;;4.38;2.30;;;5.90;99.90;;;;;;6244655;23;20152;-85
2023/01/17 10:02:28;;;;;;;4.47;3.17;;;6.30;99.90;;;;;;6244043;23;20197;-83
2023/01/17 10:05:36;;;;;;;7.13;3.00;;;6.70;99.90;;;;;;6242155;23;20160;-82
2023/01/17 10:08:49;;;;;;;5.93;2.90;;;6.70;99.90;;;;;;6129971;23;20178;-83
2023/01/17 10:11:23;;;;;;;7.18;3.55;;;6.50;99.90;;;;;;6245646;22;20152;-83
2023/01/17 10:14:04;;;;;;;10.18;3.35;;;6.40;99.90;;;;;;6244597;23;20128;-85
2023/01/17 10:16:46;;;;;;;8.77;3.72;;;6.20;99.90;;;;;;6245222;23;20648;-86
2023/01/17 10:19:30;;;;;;;6.65;2.40;;;5.90;99.90;;;;;;6246054;22;20172;-83
2023/01/17 10:22:10;;;;;;;7.90;3.63;;;6.00;99.90;;;;;;6245483;23;20153;-81
2023/01/17 10:25:04;;;;;;;6.50;3.40;;;6.00;99.90;;;;;;6243419;23;20172;-83
2023/01/17 10:27:38;;;;;;;6.60;2.50;;;5.90;99.90;;;;;;6245414;23;20903;-83
2023/01/17 10:30:22;;;;;;;3.72;2.30;;;6.00;99.90;;;;;;6242756;23;20517;-85
2023/01/17 10:32:48;;;;;;;4.80;2.17;;;6.20;99.90;;;;;;6246297;22;20167;-84
2023/01/17 10:35:25;;;;;;;3.25;1.52;;;6.40;99.90;;;;;;6244049;23;20236;-83
2023/01/17 10:37:55;;;;;;;1.95;1.83;;;6.60;99.90;;;;;;6243929;23;20176;-82
2023/01/17 10:41:00;;;;;;;6.15;1.42;;;6.60;99.90;;;;;;6244580;23;20203;-83
2023/01/17 10:43:48;;;;;;;8.02;2.25;;;6.70;99.90;;;;;;6235594;22;20160;-84
2023/01/17 10:46:19;;;;;;;4.72;1.90;;;6.80;99.90;;;;;;6243210;23;20666;-85
2023/01/17 10:48:48;;;;;;;6.85;2.80;;;6.80;99.90;;;;;;6245361;23;20172;-84
2023/01/17 10:51:41;;;;;;;11.35;2.75;;;6.80;99.90;;;;;;6246600;22;20144;-84
2023/01/17 10:54:27;;;;;;;6.85;3.22;;;6.90;99.90;;;;;;6244117;23;20908;-82
2023/01/17 10:56:53;;;;;;;7.30;2.85;;;6.90;99.90;;;;;;6239085;23;20148;-81
2023/01/17 10:59:30;;;;;;;11.37;4.00;;;6.80;99.90;;;;;;6245468;23;20266;-82
2023/01/17 11:01:57;;;;;;;8.50;4.53;;;6.70;99.90;;;;;;6247107;22;20140;-83
2023/01/17 11:04:33;;;;;;;6.90;3.65;;;6.70;99.90;;;;;;6245284;22;20596;-83
2023/01/17 11:07:20;;;;;;;6.55;3.97;;;6.60;99.90;;;;;;6243769;23;20152;-83
2023/01/17 11:09:54;;;;;;;8.45;2.67;;;6.50;99.90;;;;;;6244000;23;20165;-82
2023/01/17 11:12:45;;;;;;;6.45;3.05;;;6.50;99.90;;;;;;6243413;22;20125;-81
2023/01/17 11:15:11;;;;;;;4.15;1.83;;;6.40;99.90;;;;;;6244525;22;20172;-84
2023/01/17 11:17:44;;;;;;;5.50;2.00;;;6.30;99.90;;;;;;6244896;23;20161;-82
2023/01/17 11:20:34;;;;;;;4.00;1.67;;;6.40;99.90;;;;;;6246771;22;20209;-81
2023/01/17 11:23:04;;;;;;;4.25;2.17;;;6.60;99.90;;;;;;6247065;22;20143;-82
2023/01/17 11:25:32;;;;;;;4.43;1.80;;;6.80;99.90;;;;;;6243728;23;20342;-82
2023/01/17 11:28:29;;;;;;;3.20;1.38;;;6.80;99.90;;;;;;6242993;23;20183;-82
2023/01/17 11:31:06;;;;;;;4.10;1.50;;;6.80;99.90;;;;;;6245302;23;20232;-82
2023/01/17 11:33:44;;;;;;;4.32;1.88;;;6.90;99.90;;;;;;6242968;23;20611;-83
2023/01/17 11:36:26;;;;;;;5.32;2.85;;;7.00;99.90;;;;;;6245049;22;20132;-82
2023/01/17 11:39:20;;;;;;;2.17;1.58;;;7.00;99.90;;;;;;6244278;22;20541;-84
2023/01/17 11:41:46;;;;;;;3.35;1.63;;;6.90;99.90;;;;;;6244623;23;20187;-81
2023/01/17 11:44:30;;;;;;;6.30;2.33;;;6.90;99.90;;;;;;6242377;23;20179;-85
2023/01/17 11:47:11;;;;;;;7.45;1.85;;;6.90;99.90;;;;;;6245188;22;20143;-84
2023/01/17 11:49:41;;;;;;;3.47;1.00;;;6.80;99.90;;;;;;6243423;23;20857;-81
2023/01/17 11:52:21;;;;;;;4.93;1.45;;;6.60;99.90;;;;;;6244667;23;20153;-83
2023/01/17 11:54:48;;;;;;;2.90;1.52;;;6.30;99.90;;;;;;6242204;23;20140;-84
2023/01/17 11:57:34;;;;;;;2.50;1.38;;;6.10;99.90;;;;;;6241452;23;20172;-84
2023/01/17 12:00:31;;;;;;;4.68;1.58;;;6.10;99.90;;;;;;6240727;23;20231;-84
2023/01/17 12:03:30;;;;;;;2.17;1.67;;;6.10;99.90;;;;;;6242684;23;20236;-82
2023/01/17 12:06:07;;;;;;;2.10;1.33;;;6.40;99.90;;;;;;6239612;23;20144;-83
2023/01/17 12:09:21;;;;;;;4.47;0.95;;;6.80;99.90;;;;;;6239002;22;20225;-80
2023/01/17 12:15:05;;;;;;;3.35;1.20;;;7.50;99.90;;;;;;6238486;23;20139;-81
2023/01/17 12:18:00;;;;;;;3.20;1.85;;;7.50;99.90;;;;;;6237080;23;20218;-83
2023/01/17 12:20:48;;;;;;;4.20;1.65;;;7.40;99.90;;;;;;6235934;23;20159;-84
2023/01/17 12:23:56;;;;;;;2.88;1.80;;;7.10;99.90;;;;;;6259303;22;20156;-82
2023/01/17 12:26:38;;;;;;;6.28;2.25;;;7.20;99.90;;;;;;6242020;22;20145;-80
2023/01/17 12:29:34;;;;;;;3.05;1.45;;;7.00;99.90;;;;;;6243156;23;20195;-80
2023/01/17 12:32:13;;;;;;;1.85;0.90;;;7.00;99.90;;;;;;6244011;23;20148;-80
2023/01/17 12:34:49;;;;;;;2.70;0.60;;;6.90;99.20;;;;;;6241518;23;20144;-82
2023/01/17 12:37:35;;;;;;;1.60;1.10;;;6.80;98.50;;;;;;6242903;23;20202;-84
2023/01/17 12:40:18;;;;;;;0.90;0.80;;;6.90;99.30;;;;;;6242758;23;20738;-84
2023/01/17 12:42:55;;;;;;;3.00;0.73;;;6.90;98.20;;;;;;6246058;23;20272;-83
2023/01/17 12:45:30;;;;;;;1.92;0.88;;;6.60;97.20;;;;;;6245532;23;20223;-83
2023/01/17 12:48:11;;;;;;;2.90;0.70;;;6.60;96.60;;;;;;6246538;23;20180;-84
2023/01/17 12:50:48;;;;;;;4.55;1.17;;;6.40;96.30;;;;;;6240323;23;20228;-83
2023/01/17 12:53:33;;;;;;;1.45;1.27;;;6.20;97.00;;;;;;6244750;23;20235;-82
2023/01/17 12:56:40;;;;;;;1.45;0.70;;;6.00;96.80;;;;;;6245895;23;20687;-82
2023/01/17 12:59:45;;;;;;;1.50;0.82;;;5.80;97.10;;;;;;6238701;22;20180;-83
2023/01/17 13:02:36;;;;;;;3.15;0.95;;;5.70;97.40;;;;;;6102672;23;20155;-79
2023/01/17 13:05:14;;;;;;;2.10;1.00;;;5.80;98.50;;;;;;6246905;22;20157;-83
2023/01/17 13:07:54;;;;;;;1.33;1.23;;;5.70;96.50;;;;;;6258283;22;20219;-79
2023/01/17 13:10:30;;;;;;;3.72;1.42;;;5.70;97.40;;;;;;6245954;22;20255;-81
2023/01/17 13:12:58;;;;;;;3.85;2.90;;;5.80;98.30;;;;;;6247455;22;20132;-81
2023/01/17 13:15:29;;;;;;;1.88;1.23;;;5.80;97.70;;;;;;6245671;23;20318;-85
2023/01/17 13:18:21;;;;;;;2.13;1.38;;;5.90;97.90;;;;;;6246638;23;20168;-84
2023/01/17 13:21:06;;;;;;;2.95;1.58;;;5.80;97.00;;;;;;6244301;23;20145;-82
2023/01/17 13:24:04;;;;;;;1.85;1.10;;;5.80;97.30;;;;;;6243859;22;20173;-81
2023/01/17 13:26:48;;;;;;;1.48;1.10;;;5.70;97.30;;;;;;6240677;23;20632;-83
2023/01/17 13:29:43;;;;;;;1.52;0.80;;;5.70;96.90;;;;;;6242618;23;20536;-82
2023/01/17 13:32:35;;;;;;;1.67;0.88;;;5.60;97.00;;;;;;6241203;23;20137;-83
2023/01/17 13:35:16;;;;;;;3.47;0.85;;;5.60;97.20;;;;;;6243375;23;20145;-86
2023/01/17 13:37:47;;;;;;;8.35;3.10;;;5.60;97.20;;;;;;6239739;22;20164;-80
2023/01/17 13:40:48;;;;;;;1.20;1.10;;;5.60;97.90;;;;;;6244417;22;20148;-81
2023/01/17 13:43:21;;;;;;;1.77;1.20;;;5.60;98.10;;;;;;6241815;23;20154;-83
2023/01/17 13:45:52;;;;;;;1.25;0.90;;;5.60;98.40;;;;;;6237853;22;20137;-82
2023/01/17 13:48:17;;;;;;;1.27;1.17;;;5.50;98.30;;;;;;6242943;22;20188;-82
2023/01/17 13:51:03;;;;;;;4.43;1.20;;;5.50;98.50;;;;;;6241264;23;20621;-82
2023/01/17 13:53:35;;;;;;;1.35;1.00;;;5.40;98.90;;;;;;6239765;23;20155;-81
2023/01/17 13:56:11;;;;;;;1.30;0.85;;;5.20;99.40;;;;;;6240015;23;20184;-84
2023/01/17 13:58:56;;;;;;;5.32;2.63;;;5.20;99.90;;;;;;6236242;23;20180;-85
2023/01/17 14:01:22;;;;;;;6.60;1.70;;;5.30;99.90;;;;;;6240506;23;20144;-85
2023/01/17 14:03:50;;;;;;;3.77;2.10;;;5.30;99.90;;;;;;6239871;23;20144;-82
2023/01/17 14:06:35;;;;;;;9.00;3.92;;;5.20;99.90;;;;;;6241294;22;20156;-86
2023/01/17 14:09:18;;;;;;;13.13;4.88;;;5.30;99.90;;;;;;6241916;23;20187;-82
2023/01/17 14:12:07;;;;;;;10.82;4.15;;;5.40;99.90;;;;;;6241344;23;20152;-82
2023/01/17 14:14:39;;;;;;;7.60;4.70;;;5.40;99.90;;;;;;6238298;23;20152;-84
2023/01/17 14:17:21;;;;;;;3.45;2.08;;;5.50;99.90;;;;;;6240712;23;20171;-83
2023/01/17 14:19:50;;;;;;;3.55;2.03;;;5.50;99.90;;;;;;6239323;23;20216;-85
2023/01/17 14:22:25;;;;;;;4.22;2.05;;;5.50;99.90;;;;;;6257256;22;20153;-79
2023/01/17 14:25:09;;;;;;;7.80;3.42;;;5.40;99.90;;;;;;6243126;23;20144;-83
2023/01/17 14:27:41;;;;;;;8.30;4.20;;;5.30;99.90;;;;;;6239362;23;20199;-80
2023/01/17 14:30:21;;;;;;;3.25;2.58;;;5.30;99.90;;;;;;6241581;23;20180;-82
2023/01/17 14:33:04;;;;;;;2.55;1.88;;;5.30;99.90;;;;;;6240612;22;20143;-80
2023/01/17 14:35:30;;;;;;;3.13;2.40;;;5.10;99.90;;;;;;6238414;23;20498;-83
2023/01/17 14:37:56;;;;;;;4.27;3.27;;;5.00;99.90;;;;;;6243015;23;20240;-83
2023/01/17 14:40:29;;;;;;;2.45;1.70;;;5.00;99.90;;;;;;6240816;23;20264;-84
2023/01/17 14:43:00;;;;;;;10.02;2.67;;;4.90;99.90;;;;;;6239170;23;20153;-84
2023/01/17 14:45:29;;;;;;;3.58;2.20;;;4.80;99.90;;;;;;6233538;23;20207;-81
2023/01/17 14:47:57;;;;;;;3.53;1.92;;;4.80;99.90;;;;;;6241581;22;20548;-85
2023/01/17 14:50:26;;;;;;;7.15;2.30;;;4.80;99.90;;;;;;6238748;23;20622;-80